createdAt,value
2019-06-27T00:00:50.919Z,989.21
2019-06-27T00:02:00.923Z,989.17
2019-06-27T00:03:10.898Z,989.19
2019-06-27T00:04:20.860Z,989.26
2019-06-27T00:05:30.829Z,989.31
2019-06-27T00:06:40.799Z,989.3
2019-06-27T00:07:50.530Z,989.29
2019-06-27T00:09:00.513Z,989.3
2019-06-27T00:10:10.475Z,989.3
2019-06-27T00:11:20.481Z,989.31
2019-06-27T00:12:30.435Z,989.32
2019-06-27T00:13:40.157Z,989.36
2019-06-27T00:14:50.116Z,989.37
2019-06-27T00:16:00.081Z,989.44
2019-06-27T00:17:10.046Z,989.43
2019-06-27T00:18:19.518Z,989.44
2019-06-27T00:19:29.474Z,989.49
2019-06-27T00:20:39.493Z,989.5
2019-06-27T00:21:49.466Z,989.51
2019-06-27T00:22:59.429Z,989.53
2019-06-27T00:24:09.394Z,989.55
2019-06-27T00:25:19.349Z,989.57
2019-06-27T00:26:29.308Z,989.58
2019-06-27T00:27:39.259Z,989.56
2019-06-27T00:28:49.270Z,989.63
2019-06-27T00:29:59.224Z,989.61
2019-06-27T00:31:09.302Z,989.67
2019-06-27T00:32:19.280Z,989.69
2019-06-27T00:33:29.240Z,989.72
2019-06-27T00:34:39.242Z,989.7
2019-06-27T00:35:49.240Z,989.71
2019-06-27T00:36:59.225Z,989.71
2019-06-27T00:38:08.927Z,989.72
2019-06-27T00:39:18.910Z,989.74
2019-06-27T00:40:28.871Z,989.72
2019-06-27T00:41:38.828Z,989.79
2019-06-27T00:42:48.795Z,989.83
2019-06-27T00:43:58.752Z,989.83
2019-06-27T00:45:08.705Z,989.83
2019-06-27T00:46:18.662Z,989.85
2019-06-27T00:47:28.629Z,989.84
2019-06-27T00:48:38.587Z,989.87
2019-06-27T00:49:48.548Z,989.9
2019-06-27T00:50:58.503Z,989.91
2019-06-27T00:52:08.472Z,989.94
2019-06-27T00:53:18.180Z,989.94
2019-06-27T00:54:28.141Z,989.94
2019-06-27T00:55:38.110Z,989.93
2019-06-27T00:56:47.824Z,989.95
2019-06-27T00:58:13.324Z,989.94
2019-06-27T00:59:23.275Z,989.95
2019-06-27T01:00:33.242Z,989.99
2019-06-27T01:01:43.413Z,989.98
2019-06-27T01:02:53.372Z,989.98
2019-06-27T01:04:03.386Z,990.02
2019-06-27T01:05:12.842Z,989.98
2019-06-27T01:06:22.802Z,990
2019-06-27T01:07:32.766Z,990.01
2019-06-27T01:08:42.735Z,990.03
2019-06-27T01:09:52.690Z,990.02
2019-06-27T01:11:06.419Z,990.07
2019-06-27T01:12:16.372Z,990.08
2019-06-27T01:13:26.437Z,990.03
2019-06-27T01:14:36.394Z,990.08
2019-06-27T01:15:46.352Z,990.11
2019-06-27T01:16:56.050Z,990.09
2019-06-27T01:18:06.014Z,990.08
2019-06-27T01:19:16.026Z,990.07
2019-06-27T01:20:25.749Z,990.08
2019-06-27T01:21:35.702Z,990.06
2019-06-27T01:22:45.732Z,990.08
2019-06-27T01:23:55.699Z,990.1
2019-06-27T01:25:05.145Z,990.15
2019-06-27T01:26:15.138Z,990.14
2019-06-27T01:27:29.835Z,990.11
2019-06-27T01:28:39.905Z,990.1
2019-06-27T01:29:49.867Z,990.11
2019-06-27T01:30:59.822Z,990.12
2019-06-27T01:32:09.788Z,990.14
2019-06-27T01:33:19.599Z,990.18
2019-06-27T01:34:29.058Z,990.14
2019-06-27T01:35:38.889Z,990.17
2019-06-27T01:36:48.854Z,990.15
2019-06-27T01:37:58.810Z,990.17
2019-06-27T01:39:08.781Z,990.19
2019-06-27T01:40:18.240Z,990.2
2019-06-27T01:41:28.212Z,990.24
2019-06-27T01:42:38.172Z,990.19
2019-06-27T01:43:48.129Z,990.24
2019-06-27T01:44:59.893Z,990.24
2019-06-27T01:46:09.857Z,990.27
2019-06-27T01:47:19.815Z,990.27
2019-06-27T01:48:29.515Z,990.25
2019-06-27T01:49:39.487Z,990.27
2019-06-27T01:50:49.242Z,990.28
2019-06-27T01:51:59.197Z,990.31
2019-06-27T01:53:09.202Z,990.27
2019-06-27T01:54:18.942Z,990.32
2019-06-27T01:55:28.902Z,990.33
2019-06-27T01:56:38.925Z,990.36
2019-06-27T01:57:48.934Z,990.38
2019-06-27T01:58:58.893Z,990.38
2019-06-27T02:00:08.875Z,990.38
2019-06-27T02:01:18.864Z,990.42
2019-06-27T02:02:28.819Z,990.4
2019-06-27T02:03:38.774Z,990.45
2019-06-27T02:04:48.742Z,990.44
2019-06-27T02:05:58.700Z,990.45
2019-06-27T02:07:08.820Z,990.41
2019-06-27T02:08:18.888Z,990.43
2019-06-27T02:09:28.858Z,990.47
2019-06-27T02:10:41.208Z,990.5
2019-06-27T02:11:51.185Z,990.49
2019-06-27T02:13:01.269Z,990.5
2019-06-27T02:14:11.290Z,990.49
2019-06-27T02:15:22.149Z,990.49
2019-06-27T02:16:32.316Z,990.51
2019-06-27T02:17:41.768Z,990.52
2019-06-27T02:18:51.773Z,990.52
2019-06-27T02:20:01.735Z,990.53
2019-06-27T02:21:11.695Z,990.51
2019-06-27T02:22:21.652Z,990.56
2019-06-27T02:23:31.613Z,990.52
2019-06-27T02:24:41.574Z,990.54
2019-06-27T02:25:51.321Z,990.51
2019-06-27T02:27:01.274Z,990.54
2019-06-27T02:28:11.224Z,990.5
2019-06-27T02:29:21.174Z,990.51
2019-06-27T02:30:30.917Z,990.54
2019-06-27T02:31:40.906Z,990.51
2019-06-27T02:32:50.859Z,990.44
2019-06-27T02:34:05.004Z,990.44
2019-06-27T02:35:16.245Z,990.45
2019-06-27T02:36:26.207Z,990.44
2019-06-27T02:37:36.217Z,990.46
2019-06-27T02:38:46.188Z,990.46
2019-06-27T02:39:56.171Z,990.46
2019-06-27T02:41:06.146Z,990.5
2019-06-27T02:42:16.103Z,990.45
2019-06-27T02:43:25.832Z,990.49
2019-06-27T02:44:35.900Z,990.51
2019-06-27T02:45:45.867Z,990.47
2019-06-27T02:46:55.831Z,990.51
2019-06-27T02:48:05.807Z,990.53
2019-06-27T02:49:15.802Z,990.55
2019-06-27T02:50:25.944Z,990.53
2019-06-27T02:51:35.946Z,990.52
2019-06-27T02:52:45.915Z,990.6
2019-06-27T02:53:55.915Z,990.56
2019-06-27T02:55:05.874Z,990.6
2019-06-27T02:56:15.844Z,990.62
2019-06-27T02:57:25.820Z,990.58
2019-06-27T02:58:35.815Z,990.64
2019-06-27T02:59:45.789Z,990.65
2019-06-27T03:00:55.779Z,990.68
2019-06-27T03:02:05.762Z,990.7
2019-06-27T03:03:15.788Z,990.71
2019-06-27T03:04:25.751Z,990.66
2019-06-27T03:05:35.728Z,990.69
2019-06-27T03:06:45.782Z,990.64
2019-06-27T03:07:55.532Z,990.68
2019-06-27T03:09:05.509Z,990.66
2019-06-27T03:10:15.716Z,990.62
2019-06-27T03:11:25.742Z,990.61
2019-06-27T03:12:35.717Z,990.67
2019-06-27T03:13:45.735Z,990.65
2019-06-27T03:14:55.713Z,990.66
2019-06-27T03:16:05.683Z,990.63
2019-06-27T03:17:15.659Z,990.65
2019-06-27T03:18:25.661Z,990.66
2019-06-27T03:19:35.631Z,990.61
2019-06-27T03:20:45.624Z,990.66
2019-06-27T03:21:55.609Z,990.68
2019-06-27T03:23:10.341Z,990.67
2019-06-27T03:24:20.376Z,990.68
2019-06-27T03:25:30.081Z,990.72
2019-06-27T03:26:40.056Z,990.71
2019-06-27T03:27:50.069Z,990.68
2019-06-27T03:29:00.039Z,990.68
2019-06-27T03:30:10.065Z,990.68
2019-06-27T03:31:20.267Z,990.7
2019-06-27T03:32:30.369Z,990.73
2019-06-27T03:33:40.513Z,990.76
2019-06-27T03:34:50.596Z,990.75
2019-06-27T03:36:00.612Z,990.76
2019-06-27T03:37:10.706Z,990.78
2019-06-27T03:38:20.414Z,990.79
2019-06-27T03:39:30.376Z,990.74
2019-06-27T03:40:39.844Z,990.79
2019-06-27T03:41:49.861Z,990.81
2019-06-27T03:42:59.865Z,990.82
2019-06-27T03:44:09.890Z,990.79
2019-06-27T03:45:19.884Z,990.84
2019-06-27T03:46:29.891Z,990.84
2019-06-27T03:47:39.884Z,990.85
2019-06-27T03:48:49.849Z,990.89
2019-06-27T03:49:59.818Z,990.87
2019-06-27T03:51:09.883Z,990.88
2019-06-27T03:52:20.020Z,990.87
2019-06-27T03:53:29.871Z,990.89
2019-06-27T03:54:39.868Z,990.85
2019-06-27T03:55:49.834Z,990.85
2019-06-27T03:56:59.824Z,990.87
2019-06-27T03:58:09.797Z,990.85
2019-06-27T03:59:19.801Z,990.88
2019-06-27T04:00:29.516Z,990.87
2019-06-27T04:01:39.294Z,990.85
2019-06-27T04:02:49.251Z,990.86
2019-06-27T04:03:59.216Z,990.85
2019-06-27T04:05:08.942Z,990.86
2019-06-27T04:06:18.673Z,990.9
2019-06-27T04:07:28.659Z,990.9
2019-06-27T04:08:38.628Z,990.89
2019-06-27T04:09:48.603Z,990.89
2019-06-27T04:10:58.613Z,990.88
2019-06-27T04:12:08.587Z,990.81
2019-06-27T04:13:18.295Z,990.85
2019-06-27T04:14:28.031Z,990.86
2019-06-27T04:15:37.995Z,990.85
2019-06-27T04:16:49.363Z,990.83
2019-06-27T04:17:59.587Z,990.82
2019-06-27T04:19:09.594Z,990.84
2019-06-27T04:20:19.625Z,990.84
2019-06-27T04:21:29.657Z,990.86
2019-06-27T04:22:39.635Z,990.86
2019-06-27T04:23:49.606Z,990.85
2019-06-27T04:24:59.574Z,990.88
2019-06-27T04:26:09.704Z,990.86
2019-06-27T04:27:19.675Z,990.91
2019-06-27T04:28:29.668Z,990.95
2019-06-27T04:29:39.622Z,990.94
2019-06-27T04:30:49.105Z,990.97
2019-06-27T04:31:59.070Z,990.98
2019-06-27T04:33:09.082Z,990.99
2019-06-27T04:34:20.003Z,991.01
2019-06-27T04:35:30.315Z,990.96
2019-06-27T04:36:40.339Z,990.98
2019-06-27T04:37:50.311Z,990.99
2019-06-27T04:39:00.283Z,991
2019-06-27T04:40:10.269Z,990.95
2019-06-27T04:41:20.249Z,990.97
2019-06-27T04:42:30.242Z,990.94
2019-06-27T04:43:40.253Z,990.99
2019-06-27T04:44:50.238Z,990.96
2019-06-27T04:46:00.214Z,991.02
2019-06-27T04:47:10.195Z,991.01
2019-06-27T04:48:19.992Z,991.01
2019-06-27T04:49:30.003Z,991.01
2019-06-27T04:50:39.862Z,991.03
2019-06-27T04:51:49.841Z,991.04
2019-06-27T04:52:59.806Z,991.09
2019-06-27T04:54:09.809Z,991.05
2019-06-27T04:55:19.778Z,991.07
2019-06-27T04:56:29.830Z,991.07
2019-06-27T04:57:39.809Z,991.1
2019-06-27T04:58:49.783Z,991.14
2019-06-27T04:59:59.494Z,991.13
2019-06-27T05:01:09.220Z,991.1
2019-06-27T05:02:19.189Z,991.1
2019-06-27T05:03:33.318Z,991.08
2019-06-27T05:04:43.317Z,991.06
2019-06-27T05:05:53.276Z,991.09
2019-06-27T05:07:03.286Z,991.07
2019-06-27T05:08:14.511Z,991.09
2019-06-27T05:09:24.861Z,991.1
2019-06-27T05:10:34.577Z,991.09
2019-06-27T05:11:44.543Z,991.16
2019-06-27T05:12:54.621Z,991.17
2019-06-27T05:14:04.589Z,991.22
2019-06-27T05:15:14.570Z,991.17
2019-06-27T05:16:24.545Z,991.18
2019-06-27T05:17:34.533Z,991.2
2019-06-27T05:18:44.506Z,991.22
2019-06-27T05:19:54.460Z,991.2
2019-06-27T05:21:08.208Z,991.22
2019-06-27T05:22:18.170Z,991.26
2019-06-27T05:23:28.191Z,991.29
2019-06-27T05:24:38.228Z,991.3
2019-06-27T05:25:48.255Z,991.31
2019-06-27T05:26:58.347Z,991.37
2019-06-27T05:28:08.427Z,991.37
2019-06-27T05:29:18.399Z,991.35
2019-06-27T05:30:27.847Z,991.33
2019-06-27T05:31:37.836Z,991.35
2019-06-27T05:32:47.599Z,991.36
2019-06-27T05:33:57.569Z,991.35
2019-06-27T05:35:07.630Z,991.35
2019-06-27T05:36:17.618Z,991.39
2019-06-27T05:37:27.552Z,991.4
2019-06-27T05:38:37.487Z,991.37
2019-06-27T05:39:47.435Z,991.34
2019-06-27T05:40:57.402Z,991.35
2019-06-27T05:42:07.134Z,991.39
2019-06-27T05:43:17.063Z,991.34
2019-06-27T05:44:27.049Z,991.32
2019-06-27T05:45:36.493Z,991.31
2019-06-27T05:46:46.444Z,991.33
2019-06-27T05:47:56.375Z,991.36
2019-06-27T05:49:06.057Z,991.35
2019-06-27T05:50:15.773Z,991.38
2019-06-27T05:51:25.704Z,991.36
2019-06-27T05:52:35.646Z,991.42
2019-06-27T05:53:45.889Z,991.38
2019-06-27T05:54:55.602Z,991.45
2019-06-27T05:56:05.461Z,991.49
2019-06-27T05:57:15.408Z,991.49
2019-06-27T05:58:25.396Z,991.52
2019-06-27T05:59:35.494Z,991.55
2019-06-27T06:00:45.434Z,991.51
2019-06-27T06:01:55.136Z,991.52
2019-06-27T06:03:05.084Z,991.46
2019-06-27T06:04:14.821Z,991.52
2019-06-27T06:05:26.945Z,991.51
2019-06-27T06:06:36.885Z,991.5
2019-06-27T06:07:46.905Z,991.48
2019-06-27T06:08:56.844Z,991.49
2019-06-27T06:10:06.788Z,991.51
2019-06-27T06:11:16.759Z,991.52
2019-06-27T06:12:26.740Z,991.46
2019-06-27T06:13:36.682Z,991.49
2019-06-27T06:14:46.630Z,991.49
2019-06-27T06:15:56.567Z,991.49
2019-06-27T06:17:08.810Z,991.48
2019-06-27T06:18:18.743Z,991.48
2019-06-27T06:19:28.707Z,991.46
2019-06-27T06:20:38.639Z,991.47
2019-06-27T06:21:48.575Z,991.44
2019-06-27T06:22:58.513Z,991.45
2019-06-27T06:24:08.509Z,991.39
2019-06-27T06:25:18.475Z,991.39
2019-06-27T06:26:28.477Z,991.39
2019-06-27T06:27:38.435Z,991.4
2019-06-27T06:28:48.400Z,991.32
2019-06-27T06:29:58.416Z,991.39
2019-06-27T06:31:08.385Z,991.44
2019-06-27T06:32:18.073Z,991.44
2019-06-27T06:33:27.759Z,991.46
2019-06-27T06:34:37.708Z,991.46
2019-06-27T06:35:47.659Z,991.43
2019-06-27T06:36:57.832Z,991.43
2019-06-27T06:38:10.976Z,991.39
2019-06-27T06:39:21.138Z,991.48
2019-06-27T06:40:31.186Z,991.53
2019-06-27T06:41:41.120Z,991.51
2019-06-27T06:42:51.051Z,991.56
2019-06-27T06:44:06.072Z,991.63
2019-06-27T06:45:16.001Z,991.65
2019-06-27T06:46:25.945Z,991.71
2019-06-27T06:47:35.907Z,991.68
2019-06-27T06:48:45.846Z,991.66
2019-06-27T06:49:55.823Z,991.65
2019-06-27T06:51:05.762Z,991.7
2019-06-27T06:52:15.708Z,991.7
2019-06-27T06:53:25.215Z,991.72
2019-06-27T06:54:35.154Z,991.63
2019-06-27T06:55:45.109Z,991.7
2019-06-27T06:56:55.070Z,991.7
2019-06-27T06:58:05.048Z,991.71
2019-06-27T06:59:15.004Z,991.77
2019-06-27T07:00:24.478Z,991.79
2019-06-27T07:01:34.420Z,991.78
2019-06-27T07:02:48.364Z,991.85
2019-06-27T07:03:58.403Z,991.86
2019-06-27T07:05:08.366Z,991.87
2019-06-27T07:06:18.452Z,991.94
2019-06-27T07:07:28.403Z,991.95
2019-06-27T07:08:38.344Z,991.97
2019-06-27T07:09:48.301Z,991.92
2019-06-27T07:10:58.244Z,991.94
2019-06-27T07:12:08.280Z,991.96
2019-06-27T07:13:18.080Z,991.95
2019-06-27T07:14:28.034Z,991.87
2019-06-27T07:15:37.980Z,991.94
2019-06-27T07:16:47.924Z,991.98
2019-06-27T07:17:57.880Z,991.97
2019-06-27T07:19:07.830Z,991.93
2019-06-27T07:20:17.996Z,991.93
2019-06-27T07:21:28.094Z,991.92
2019-06-27T07:22:38.023Z,991.88
2019-06-27T07:23:48.017Z,991.84
2019-06-27T07:24:57.971Z,991.81
2019-06-27T07:26:07.865Z,991.85
2019-06-27T07:27:17.905Z,991.8
2019-06-27T07:28:27.751Z,991.88
2019-06-27T07:29:37.744Z,991.92
2019-06-27T07:30:47.754Z,991.92
2019-06-27T07:31:57.686Z,991.93
2019-06-27T07:33:10.148Z,991.92
2019-06-27T07:34:20.276Z,991.93
2019-06-27T07:35:30.383Z,991.93
2019-06-27T07:36:40.457Z,991.93
2019-06-27T07:37:50.537Z,991.96
2019-06-27T07:39:00.480Z,992.02
2019-06-27T07:40:10.509Z,992.02
2019-06-27T07:41:20.453Z,992.01
2019-06-27T07:42:30.394Z,992.02
2019-06-27T07:43:40.334Z,991.98
2019-06-27T07:44:50.300Z,992.04
2019-06-27T07:46:00.267Z,991.99
2019-06-27T07:47:27.300Z,991.98
2019-06-27T07:48:36.998Z,991.98
2019-06-27T07:49:46.944Z,992.02
2019-06-27T07:50:56.629Z,991.98
2019-06-27T07:52:06.670Z,992.03
2019-06-27T07:53:17.071Z,992.04
2019-06-27T07:54:27.101Z,991.98
2019-06-27T07:55:36.786Z,991.96
2019-06-27T07:56:46.730Z,992.01
2019-06-27T07:57:56.660Z,992.04
2019-06-27T07:59:06.601Z,991.98
2019-06-27T08:00:16.285Z,991.98
2019-06-27T08:01:34.777Z,991.98
2019-06-27T08:02:45.276Z,991.98
2019-06-27T08:03:55.045Z,992
2019-06-27T08:05:04.990Z,991.99
2019-06-27T08:06:15.210Z,992.02
2019-06-27T08:07:25.170Z,992.02
2019-06-27T08:08:35.108Z,991.96
2019-06-27T08:09:44.834Z,992.03
2019-06-27T08:10:54.773Z,991.96
2019-06-27T08:12:04.796Z,991.98
2019-06-27T08:13:14.513Z,991.97
2019-06-27T08:14:24.465Z,992
2019-06-27T08:15:34.164Z,992
2019-06-27T08:16:44.107Z,991.99
2019-06-27T08:17:54.087Z,992.03
2019-06-27T08:19:04.049Z,991.99
2019-06-27T08:20:13.785Z,992.03
2019-06-27T08:21:23.733Z,992.02
2019-06-27T08:22:33.671Z,992.09
2019-06-27T08:23:43.383Z,992.07
2019-06-27T08:24:53.344Z,992.04
2019-06-27T08:26:03.283Z,992.04
2019-06-27T08:27:13.270Z,992.07
2019-06-27T08:28:23.204Z,992.09
2019-06-27T08:29:33.165Z,992.07
2019-06-27T08:30:43.168Z,992.06
2019-06-27T08:31:53.106Z,992.07
2019-06-27T08:33:03.044Z,992.02
2019-06-27T08:34:12.989Z,992.04
2019-06-27T08:35:22.925Z,992.02
2019-06-27T08:36:36.489Z,992.02
2019-06-27T08:37:46.804Z,991.98
2019-06-27T08:38:56.800Z,991.97
2019-06-27T08:40:06.764Z,991.95
2019-06-27T08:41:16.705Z,991.94
2019-06-27T08:42:26.678Z,991.9
2019-06-27T08:43:36.628Z,991.95
2019-06-27T08:44:46.582Z,991.93
2019-06-27T08:45:56.596Z,991.95
2019-06-27T08:47:06.608Z,992
2019-06-27T08:48:16.315Z,992
2019-06-27T08:49:26.004Z,991.97
2019-06-27T08:50:35.699Z,991.96
2019-06-27T08:51:45.655Z,992
2019-06-27T08:52:55.610Z,991.99
2019-06-27T08:54:08.954Z,991.97
2019-06-27T08:55:18.924Z,991.97
2019-06-27T08:56:28.881Z,991.97
2019-06-27T08:57:38.816Z,991.92
2019-06-27T08:58:48.790Z,991.93
2019-06-27T08:59:58.753Z,991.93
2019-06-27T09:01:08.846Z,991.94
2019-06-27T09:02:18.807Z,991.95
2019-06-27T09:03:28.764Z,991.93
2019-06-27T09:04:38.775Z,991.96
2019-06-27T09:05:48.747Z,991.95
2019-06-27T09:06:58.704Z,991.96
2019-06-27T09:08:08.651Z,991.98
2019-06-27T09:09:18.626Z,991.94
2019-06-27T09:10:28.331Z,991.96
2019-06-27T09:11:38.452Z,991.98
2019-06-27T09:12:48.418Z,991.93
2019-06-27T09:13:58.374Z,991.91
2019-06-27T09:15:08.377Z,991.89
2019-06-27T09:16:18.322Z,991.95
2019-06-27T09:17:28.269Z,991.92
2019-06-27T09:18:38.319Z,991.93
2019-06-27T09:19:48.255Z,991.96
2019-06-27T09:20:58.295Z,991.9
2019-06-27T09:22:07.983Z,991.96
2019-06-27T09:23:17.939Z,991.93
2019-06-27T09:24:27.919Z,991.91
2019-06-27T09:25:37.907Z,991.91
2019-06-27T09:26:47.945Z,991.92
2019-06-27T09:27:57.650Z,991.98
2019-06-27T09:29:07.641Z,991.99
2019-06-27T09:30:17.081Z,992.02
2019-06-27T09:31:26.770Z,992.03
2019-06-27T09:32:36.774Z,992.09
2019-06-27T09:33:46.754Z,992.02
2019-06-27T09:34:56.732Z,992.04
2019-06-27T09:36:06.729Z,992.03
2019-06-27T09:37:16.725Z,992.02
2019-06-27T09:38:26.663Z,991.99
2019-06-27T09:39:36.887Z,991.97
2019-06-27T09:40:46.880Z,991.98
2019-06-27T09:41:56.859Z,991.95
2019-06-27T09:43:06.802Z,991.97
2019-06-27T09:44:16.499Z,991.94
2019-06-27T09:45:25.694Z,991.91
2019-06-27T09:46:35.676Z,991.9
2019-06-27T09:47:45.415Z,991.9
2019-06-27T09:48:55.420Z,991.88
2019-06-27T09:50:05.366Z,991.84
2019-06-27T09:51:15.344Z,991.85
2019-06-27T09:52:25.306Z,991.82
2019-06-27T09:53:35.249Z,991.81
2019-06-27T09:54:44.972Z,991.85
2019-06-27T09:55:54.986Z,991.83
2019-06-27T09:57:04.955Z,991.8
2019-06-27T09:58:14.923Z,991.78
2019-06-27T09:59:24.887Z,991.81
2019-06-27T10:00:34.573Z,991.81
2019-06-27T10:01:44.507Z,991.76
2019-06-27T10:02:54.455Z,991.82
2019-06-27T10:04:04.494Z,991.82
2019-06-27T10:05:14.441Z,991.82
2019-06-27T10:06:26.253Z,991.86
2019-06-27T10:07:36.307Z,991.88
2019-06-27T10:08:46.280Z,991.89
2019-06-27T10:09:56.233Z,991.88
2019-06-27T10:11:06.192Z,991.92
2019-06-27T10:12:16.130Z,991.88
2019-06-27T10:13:42.158Z,991.85
2019-06-27T10:14:52.136Z,991.78
2019-06-27T10:16:02.103Z,991.8
2019-06-27T10:17:12.049Z,991.78
2019-06-27T10:18:21.992Z,991.75
2019-06-27T10:19:31.985Z,991.77
2019-06-27T10:20:41.688Z,991.77
2019-06-27T10:21:51.635Z,991.72
2019-06-27T10:23:01.688Z,991.74
2019-06-27T10:24:11.646Z,991.74
2019-06-27T10:25:21.788Z,991.75
2019-06-27T10:26:31.722Z,991.72
2019-06-27T10:27:41.836Z,991.73
2019-06-27T10:28:51.846Z,991.69
2019-06-27T10:30:01.838Z,991.62
2019-06-27T10:31:11.808Z,991.7
2019-06-27T10:32:21.745Z,991.69
2019-06-27T10:33:31.692Z,991.71
2019-06-27T10:34:41.664Z,991.72
2019-06-27T10:35:51.617Z,991.67
2019-06-27T10:37:01.555Z,991.72
2019-06-27T10:38:11.563Z,991.68
2019-06-27T10:39:21.509Z,991.65
2019-06-27T10:40:30.997Z,991.65
2019-06-27T10:41:40.962Z,991.68
2019-06-27T10:42:50.917Z,991.68
2019-06-27T10:44:00.868Z,991.67
2019-06-27T10:45:10.988Z,991.64
2019-06-27T10:46:20.884Z,991.64
2019-06-27T10:47:30.903Z,991.62
2019-06-27T10:48:40.891Z,991.6
2019-06-27T10:49:50.863Z,991.6
2019-06-27T10:51:00.820Z,991.64
2019-06-27T10:52:10.876Z,991.64
2019-06-27T10:53:20.813Z,991.63
2019-06-27T10:54:30.757Z,991.6
2019-06-27T10:55:40.698Z,991.68
2019-06-27T10:56:50.647Z,991.61
2019-06-27T10:58:00.795Z,991.61
2019-06-27T10:59:10.746Z,991.62
2019-06-27T11:00:20.489Z,991.66
2019-06-27T11:01:30.451Z,991.7
2019-06-27T11:02:40.391Z,991.7
2019-06-27T11:03:50.354Z,991.69
2019-06-27T11:05:00.320Z,991.65
2019-06-27T11:06:10.260Z,991.64
2019-06-27T11:07:20.214Z,991.64
2019-06-27T11:08:30.165Z,991.64
2019-06-27T11:09:40.173Z,991.66
2019-06-27T11:10:52.988Z,991.68
2019-06-27T11:12:02.950Z,991.7
2019-06-27T11:13:12.984Z,991.67
2019-06-27T11:14:23.007Z,991.6
2019-06-27T11:15:32.705Z,991.59
2019-06-27T11:16:42.687Z,991.59
2019-06-27T11:17:52.656Z,991.59
2019-06-27T11:19:02.614Z,991.58
2019-06-27T11:20:15.056Z,991.57
2019-06-27T11:21:25.265Z,991.55
2019-06-27T11:22:35.206Z,991.57
2019-06-27T11:23:45.164Z,991.59
2019-06-27T11:24:55.138Z,991.54
2019-06-27T11:26:04.905Z,991.56
2019-06-27T11:27:17.176Z,991.52
2019-06-27T11:28:30.237Z,991.52
2019-06-27T11:29:40.225Z,991.51
2019-06-27T11:30:50.212Z,991.43
2019-06-27T11:32:00.216Z,991.45
2019-06-27T11:33:10.239Z,991.43
2019-06-27T11:34:36.723Z,991.43
2019-06-27T11:35:46.422Z,991.41
2019-06-27T11:36:56.447Z,991.43
2019-06-27T11:38:06.403Z,991.41
2019-06-27T11:39:16.495Z,991.43
2019-06-27T11:40:28.392Z,991.47
2019-06-27T11:41:38.083Z,991.47
2019-06-27T11:42:48.073Z,991.52
2019-06-27T11:43:58.025Z,991.54
2019-06-27T11:45:07.988Z,991.5
2019-06-27T11:46:17.950Z,991.53
2019-06-27T11:47:27.696Z,991.47
2019-06-27T11:48:39.839Z,991.45
2019-06-27T11:49:49.803Z,991.36
2019-06-27T11:50:59.762Z,991.39
2019-06-27T11:52:09.513Z,991.35
2019-06-27T11:53:18.989Z,991.35
2019-06-27T11:54:28.940Z,991.32
2019-06-27T11:55:38.834Z,991.26
2019-06-27T11:56:48.787Z,991.3
2019-06-27T11:57:58.873Z,991.28
2019-06-27T11:59:08.850Z,991.25
2019-06-27T12:00:18.351Z,991.14
2019-06-27T12:01:28.167Z,991.19
2019-06-27T12:02:38.201Z,991.27
2019-06-27T12:03:49.877Z,990.92
2019-06-27T12:04:59.992Z,991.02
2019-06-27T12:06:09.955Z,991.08
2019-06-27T12:07:19.908Z,991.19
2019-06-27T12:08:29.885Z,991.18
2019-06-27T12:09:39.870Z,991.13
2019-06-27T12:10:49.831Z,991.16
2019-06-27T12:11:59.801Z,991.06
2019-06-27T12:13:10.053Z,991.03
2019-06-27T12:14:20.047Z,991.03
2019-06-27T12:15:29.751Z,991.03
2019-06-27T12:16:39.708Z,990.98
2019-06-27T12:17:49.753Z,991.07
2019-06-27T12:18:59.785Z,991.04
2019-06-27T12:20:09.774Z,991.06
2019-06-27T12:21:19.735Z,991.1
2019-06-27T12:22:29.804Z,991.02
2019-06-27T12:23:39.587Z,991.09
2019-06-27T12:24:49.576Z,991.03
2019-06-27T12:25:59.544Z,991.12
2019-06-27T12:27:09.505Z,991.11
2019-06-27T12:28:19.500Z,991.01
2019-06-27T12:29:29.274Z,991.09
2019-06-27T12:30:39.249Z,990.97
2019-06-27T12:31:51.536Z,991.03
2019-06-27T12:33:01.831Z,991.05
2019-06-27T12:34:11.814Z,991.12
2019-06-27T12:35:21.355Z,991.08
2019-06-27T12:36:31.465Z,991.03
2019-06-27T12:37:41.538Z,991.04
2019-06-27T12:38:51.501Z,990.95
2019-06-27T12:40:01.474Z,990.96
2019-06-27T12:41:10.978Z,991.04
2019-06-27T12:42:31.778Z,990.96
2019-06-27T12:43:42.368Z,991
2019-06-27T12:44:52.332Z,990.87
2019-06-27T12:46:02.286Z,990.98
2019-06-27T12:47:12.272Z,990.96
2019-06-27T12:48:21.978Z,990.94
2019-06-27T12:49:49.968Z,990.87
2019-06-27T12:51:10.558Z,990.91
2019-06-27T12:52:20.523Z,990.95
2019-06-27T12:53:30.289Z,990.9
2019-06-27T12:54:40.259Z,990.92
2019-06-27T12:55:50.252Z,990.79
2019-06-27T12:57:00.377Z,990.92
2019-06-27T12:58:10.443Z,990.87
2019-06-27T12:59:20.406Z,991
2019-06-27T13:00:30.121Z,990.88
2019-06-27T13:01:39.970Z,990.93
2019-06-27T13:02:49.936Z,990.97
2019-06-27T13:03:59.947Z,990.89
2019-06-27T13:05:25.668Z,990.93
2019-06-27T13:06:35.728Z,990.9
2019-06-27T13:07:45.517Z,990.86
2019-06-27T13:08:55.481Z,990.86
2019-06-27T13:10:05.441Z,990.83
2019-06-27T13:11:15.425Z,990.81
2019-06-27T13:12:25.432Z,990.76
2019-06-27T13:13:35.411Z,990.81
2019-06-27T13:14:45.446Z,990.78
2019-06-27T13:15:55.226Z,990.72
2019-06-27T13:17:04.979Z,990.73
2019-06-27T13:18:14.948Z,990.7
2019-06-27T13:19:24.933Z,990.75
2019-06-27T13:20:34.382Z,990.65
2019-06-27T13:22:01.429Z,990.59
2019-06-27T13:23:11.444Z,990.63
2019-06-27T13:24:21.506Z,990.69
2019-06-27T13:25:34.086Z,990.62
2019-06-27T13:26:44.235Z,990.64
2019-06-27T13:27:54.213Z,990.62
2019-06-27T13:29:04.264Z,990.63
2019-06-27T13:30:14.030Z,990.59
2019-06-27T13:31:23.797Z,990.63
2019-06-27T13:32:33.812Z,990.65
2019-06-27T13:33:43.774Z,990.65
2019-06-27T13:34:53.760Z,990.69
2019-06-27T13:36:03.761Z,990.65
2019-06-27T13:37:13.930Z,990.67
2019-06-27T13:38:23.931Z,990.74
2019-06-27T13:39:33.910Z,990.67
2019-06-27T13:40:43.653Z,990.77
2019-06-27T13:41:53.638Z,990.81
2019-06-27T13:43:03.600Z,990.82
2019-06-27T13:44:13.559Z,990.93
2019-06-27T13:45:26.289Z,990.87
2019-06-27T13:46:36.595Z,990.96
2019-06-27T13:47:46.724Z,990.97
2019-06-27T13:48:56.745Z,990.91
2019-06-27T13:50:06.567Z,990.94
2019-06-27T13:51:16.524Z,990.98
2019-06-27T13:52:26.495Z,990.9
2019-06-27T13:53:36.519Z,990.92
2019-06-27T13:54:46.226Z,990.86
2019-06-27T13:55:56.197Z,990.85
2019-06-27T13:57:06.165Z,990.87
2019-06-27T13:58:16.137Z,990.87
2019-06-27T13:59:26.186Z,990.88
2019-06-27T14:00:35.639Z,990.92
2019-06-27T14:01:45.388Z,990.91
2019-06-27T14:02:55.362Z,990.93
2019-06-27T14:04:05.330Z,990.88
2019-06-27T14:05:15.288Z,990.87
2019-06-27T14:06:25.284Z,990.92
2019-06-27T14:07:35.184Z,990.9
2019-06-27T14:08:45.274Z,990.89
2019-06-27T14:09:57.210Z,990.9
2019-06-27T14:11:07.645Z,990.91
2019-06-27T14:12:17.601Z,990.95
2019-06-27T14:13:27.582Z,990.99
2019-06-27T14:14:37.562Z,990.86
2019-06-27T14:16:05.891Z,990.87
2019-06-27T14:17:16.053Z,990.98
2019-06-27T14:18:26.028Z,990.88
2019-06-27T14:19:36.017Z,990.77
2019-06-27T14:20:46.009Z,990.76
2019-06-27T14:21:58.743Z,990.79
2019-06-27T14:23:08.949Z,990.64
2019-06-27T14:24:18.924Z,990.78
2019-06-27T14:25:28.635Z,990.87
2019-06-27T14:26:38.351Z,990.77
2019-06-27T14:27:48.354Z,990.77
2019-06-27T14:28:58.425Z,990.98
2019-06-27T14:30:08.393Z,990.92
2019-06-27T14:31:18.367Z,990.95
2019-06-27T14:32:28.329Z,990.77
2019-06-27T14:33:38.293Z,990.89
2019-06-27T14:34:48.365Z,990.97
2019-06-27T14:36:15.320Z,991.25
2019-06-27T14:37:25.309Z,991.25
2019-06-27T14:38:35.318Z,991.32
2019-06-27T14:39:45.284Z,991.48
2019-06-27T14:40:59.355Z,991.31